Time;durP1;ratioP1;P1;durP2;ratioP2;P2;SDS_P1;SDS_P2;PMS_P1;PMS_P2;Temp;Humidity;BMP_temperature;BMP_pressure;BME280_temperature;BME280_humidity;BME280_pressure;Samples;Min_cycle;Max_cycle;Signal;HPM_P1;HPM_P2
2022/05/19 00:01:24;;;;;;;7.10;5.05;;;;;;;17.83;100.00;101800.94;4856439;29;20109;-80
2022/05/19 00:03:50;;;;;;;7.38;5.40;;;;;;;17.89;100.00;101802.97;4843210;29;20670;-79
2022/05/19 00:06:16;;;;;;;10.02;5.47;;;;;;;17.93;100.00;101803.41;4858237;29;20041;-79
2022/05/19 00:08:42;;;;;;;6.53;4.97;;;;;;;18.02;100.00;101805.06;4842635;29;20562;-81
2022/05/19 00:11:12;;;;;;;7.10;5.30;;;;;;;17.93;100.00;101798.13;4852289;29;20041;-80
2022/05/19 00:13:39;;;;;;;9.45;5.30;;;;;;;17.95;100.00;101798.81;4856628;29;20068;-79
2022/05/19 00:16:05;;;;;;;5.95;5.00;;;;;;;17.85;100.00;101800.78;4852226;29;20063;-80
2022/05/19 00:18:32;;;;;;;5.88;4.95;;;;;;;17.79;100.00;101802.28;4842654;29;20041;-80
2022/05/19 00:20:58;;;;;;;6.07;4.93;;;;;;;17.81;100.00;101802.09;4845276;29;20135;-79
2022/05/19 00:23:23;;;;;;;7.70;5.50;;;;;;;17.74;100.00;101791.31;4842582;29;20517;-77
2022/05/19 00:25:49;;;;;;;8.70;5.13;;;;;;;17.73;100.00;101802.13;4856978;29;20037;-79
2022/05/19 00:28:15;;;;;;;15.27;4.80;;;;;;;17.59;100.00;101795.66;4841345;29;20488;-79
2022/05/19 00:30:41;;;;;;;6.90;5.38;;;;;;;17.50;100.00;101785.06;4855126;29;20501;-79
2022/05/19 00:33:08;;;;;;;10.05;5.43;;;;;;;17.42;100.00;101786.88;4847586;29;20060;-79
2022/05/19 00:35:36;;;;;;;6.13;5.30;;;;;;;17.44;100.00;101787.53;4863598;29;20038;-78
2022/05/19 00:38:02;;;;;;;6.77;5.50;;;;;;;17.47;100.00;101781.91;4858131;29;20462;-78
2022/05/19 00:40:28;;;;;;;10.13;5.63;;;;;;;17.38;100.00;101788.22;4873993;29;20099;-78
2022/05/19 00:42:53;;;;;;;7.28;5.55;;;;;;;17.38;100.00;101788.22;4852688;29;20038;-78
2022/05/19 00:45:22;;;;;;;8.23;5.65;;;;;;;17.37;100.00;101787.38;4839978;29;20409;-78
2022/05/19 00:48:01;;;;;;;10.18;5.50;;;;;;;17.31;100.00;101783.56;4831884;29;20088;-81
2022/05/19 00:50:48;;;;;;;6.70;5.53;;;;;;;17.26;100.00;101777.94;4841667;29;20084;-77
2022/05/19 00:53:55;;;;;;;9.50;5.70;;;;;;;17.34;100.00;101790.34;4829555;29;20034;-81
2022/05/19 00:56:33;;;;;;;8.93;5.68;;;;;;;17.34;100.00;101785.06;4851568;29;20049;-79
2022/05/19 00:59:04;;;;;;;7.88;5.60;;;;;;;17.38;100.00;101782.91;4859420;29;20044;-79
2022/05/19 01:01:32;;;;;;;6.55;5.15;;;;;;;17.40;100.00;101787.03;4861386;29;20052;-78
2022/05/19 01:04:13;;;;;;;6.50;4.93;;;;;;;17.37;100.00;101782.09;4850458;29;20136;-79
2022/05/19 01:06:43;;;;;;;9.10;5.72;;;;;;;17.32;100.00;101782.56;4861127;29;20142;-77
2022/05/19 01:09:14;;;;;;;8.57;5.50;;;;;;;17.32;100.00;101779.91;4849667;29;20033;-80
2022/05/19 01:11:41;;;;;;;6.10;5.50;;;;;;;17.29;100.00;101777.63;4861453;29;20041;-79
2022/05/19 01:14:07;;;;;;;8.25;5.32;;;;;;;17.25;100.00;101770.13;4861551;29;20680;-78
2022/05/19 01:16:33;;;;;;;7.25;5.45;;;;;;;17.15;100.00;101772.13;4853631;29;20806;-79
2022/05/19 01:19:00;;;;;;;5.95;5.15;;;;;;;17.13;100.00;101782.91;4862081;29;20040;-78
2022/05/19 01:21:29;;;;;;;8.35;5.72;;;;;;;17.11;100.00;101779.59;4860029;29;20045;-79
2022/05/19 01:24:12;;;;;;;11.43;6.32;;;;;;;17.13;100.00;101765.16;4846618;29;20045;-78
2022/05/19 01:26:45;;;;;;;6.93;5.15;;;;;;;17.20;100.00;101773.28;4859388;29;20041;-79
2022/05/19 01:29:13;;;;;;;8.93;5.95;;;;;;;17.20;100.00;101775.13;4856870;29;20036;-78
2022/05/19 01:31:52;;;;;;;9.00;5.25;;;;;;;17.11;100.00;101767.16;4854865;29;20132;-78
2022/05/19 01:34:25;;;;;;;9.02;5.70;;;;;;;17.10;100.00;101772.63;4851884;29;20465;-78
2022/05/19 01:36:52;;;;;;;6.25;5.53;;;;;;;17.04;100.00;101782.03;4874726;29;20033;-78
2022/05/19 01:39:31;;;;;;;10.45;5.90;;;;;;;17.04;100.00;101773.28;4835163;29;20109;-78
2022/05/19 01:42:15;;;;;;;6.53;5.32;;;;;;;17.01;100.00;101766.50;4846147;29;20037;-78
2022/05/19 01:44:57;;;;;;;9.45;5.57;;;;;;;17.07;100.00;101775.63;4872703;29;20053;-80
2022/05/19 01:47:33;;;;;;;8.65;5.72;;;;;;;16.96;100.00;101766.16;4863111;29;20588;-78
2022/05/19 01:50:17;;;;;;;5.95;5.30;;;;;;;16.99;100.00;101771.13;4842972;29;20446;-80
2022/05/19 01:53:02;;;;;;;7.97;5.65;;;;;;;16.95;100.00;101763.66;4837613;29;20139;-78
2022/05/19 01:55:55;;;;;;;5.95;5.43;;;;;;;16.91;100.00;101757.84;4854616;29;20493;-81
2022/05/19 01:58:24;;;;;;;6.70;5.55;;;;;;;16.93;100.00;101756.72;4855101;29;20068;-79
2022/05/19 02:00:54;;;;;;;7.25;5.70;;;;;;;17.00;100.00;101761.34;4857465;29;20037;-78
2022/05/19 02:03:41;;;;;;;8.50;5.57;;;;;;;16.96;100.00;101765.31;4858614;29;20040;-79
2022/05/19 02:06:21;;;;;;;6.25;5.35;;;;;;;16.85;100.00;101756.69;4856858;29;20049;-81
2022/05/19 02:08:54;;;;;;;11.02;5.45;;;;;;;16.85;100.00;101761.16;4853083;29;20096;-79
2022/05/19 02:11:42;;;;;;;7.47;5.50;;;;;;;16.77;100.00;101759.28;4841336;29;20054;-77
2022/05/19 02:14:12;;;;;;;6.15;5.43;;;;;;;16.82;100.00;101764.97;4832901;29;20046;-81
2022/05/19 02:16:39;;;;;;;7.45;5.65;;;;;;;16.74;100.00;101760.47;4862038;29;20517;-79
2022/05/19 02:19:07;;;;;;;7.35;5.80;;;;;;;16.68;100.00;101754.97;4850085;29;20808;-81
2022/05/19 02:21:33;;;;;;;7.78;5.28;;;;;;;16.62;100.00;101756.44;4861004;29;20118;-78
2022/05/19 02:24:01;;;;;;;8.50;5.68;;;;;;;16.56;100.00;101759.75;4858420;29;20173;-78
2022/05/19 02:26:33;;;;;;;8.65;5.68;;;;;;;16.50;100.00;101761.22;4850553;29;20037;-79
2022/05/19 02:29:01;;;;;;;;;;;;;;;16.50;100.00;101758.56;4848383;29;20504;-78
2022/05/19 02:31:28;;;;;;;10.32;5.63;;;;;;;16.60;100.00;101747.00;4861418;29;19920;-79
2022/05/19 02:33:54;;;;;;;10.02;5.50;;;;;;;16.60;100.00;101753.13;4854069;29;20100;-79
2022/05/19 02:36:19;;;;;;;8.20;5.43;;;;;;;16.61;100.00;101762.72;4840262;29;20120;-79
2022/05/19 02:38:45;;;;;;;7.43;6.07;;;;;;;16.59;100.00;101748.81;4858019;29;20151;-80
2022/05/19 02:41:12;;;;;;;6.93;5.78;;;;;;;16.59;100.00;101753.28;4858999;29;20034;-80
2022/05/19 02:43:37;;;;;;;11.13;6.45;;;;;;;16.57;100.00;101755.28;4858230;29;20040;-79
2022/05/19 02:46:03;;;;;;;8.82;5.85;;;;;;;16.51;100.00;101751.44;4836731;29;20100;-79
2022/05/19 02:48:32;;;;;;;8.95;5.88;;;;;;;16.40;100.00;101738.50;4843838;29;20037;-78
2022/05/19 02:50:59;;;;;;;7.78;6.03;;;;;;;16.41;100.00;101751.59;4861196;29;20136;-78
2022/05/19 02:53:25;;;;;;;6.50;5.80;;;;;;;16.40;100.00;101749.09;4840744;29;20455;-78
2022/05/19 02:55:53;;;;;;;8.55;5.90;;;;;;;16.32;100.00;101748.06;4850535;29;20457;-78
2022/05/19 02:58:19;;;;;;;8.02;5.80;;;;;;;16.28;100.00;101737.97;4833768;29;20041;-77
2022/05/19 03:00:46;;;;;;;8.13;6.00;;;;;;;16.21;100.00;101731.66;4852259;29;20042;-79
2022/05/19 03:03:12;;;;;;;6.82;5.97;;;;;;;16.23;100.00;101749.03;4842597;29;20056;-78
2022/05/19 03:05:39;;;;;;;7.78;6.00;;;;;;;16.14;100.00;101742.03;4855166;29;20038;-79
2022/05/19 03:08:06;;;;;;;9.15;5.90;;;;;;;16.10;100.00;101744.16;4842273;29;20552;-79
2022/05/19 03:10:33;;;;;;;9.05;6.20;;;;;;;16.02;100.00;101735.38;4830614;29;20046;-79
2022/05/19 03:12:59;;;;;;;8.48;6.20;;;;;;;15.96;100.00;101732.38;4856077;29;20088;-78
2022/05/19 03:15:25;;;;;;;12.00;6.25;;;;;;;15.84;100.00;101730.16;4847680;29;20085;-82
2022/05/19 03:17:51;;;;;;;10.02;6.40;;;;;;;15.81;100.00;101736.59;4858315;29;20101;-79
2022/05/19 03:20:17;;;;;;;11.75;6.78;;;;;;;15.77;100.00;101735.25;4855114;29;20034;-80
2022/05/19 03:22:43;;;;;;;9.07;6.47;;;;;;;15.74;100.00;101741.66;4866989;29;20854;-80
2022/05/19 03:25:09;;;;;;;11.07;6.28;;;;;;;15.71;100.00;101736.66;4856601;29;20034;-81
2022/05/19 03:27:36;;;;;;;11.77;5.72;;;;;;;15.69;100.00;101749.22;4858593;29;20053;-81
2022/05/19 03:30:05;;;;;;;10.38;6.63;;;;;;;15.62;100.00;101742.88;4855152;29;20029;-78
2022/05/19 03:32:32;;;;;;;8.65;6.28;;;;;;;15.58;100.00;101734.44;4835082;29;20069;-80
2022/05/19 03:34:57;;;;;;;12.77;6.47;;;;;;;15.62;100.00;101742.06;4862251;29;20076;-78
2022/05/19 03:37:23;;;;;;;8.43;6.20;;;;;;;15.58;100.00;101739.72;4844535;29;20061;-77
2022/05/19 03:39:49;;;;;;;10.52;6.63;;;;;;;15.61;100.00;101750.97;4862670;29;20046;-79
2022/05/19 03:42:15;;;;;;;7.03;6.30;;;;;;;15.61;100.00;101741.22;4855266;29;20591;-79
2022/05/19 03:44:41;;;;;;;10.10;6.25;;;;;;;15.63;100.00;101735.78;4851877;29;20037;-81
2022/05/19 03:47:08;;;;;;;10.60;7.10;;;;;;;15.57;100.00;101732.75;4881204;29;20152;-79
2022/05/19 03:49:34;;;;;;;10.82;6.68;;;;;;;15.61;100.00;101738.56;4856001;29;20560;-79
2022/05/19 03:52:00;;;;;;;14.23;7.03;;;;;;;15.61;100.00;101735.94;4860166;29;20072;-80
2022/05/19 03:54:26;;;;;;;12.73;6.85;;;;;;;15.64;100.00;101740.09;4827834;29;20400;-79
2022/05/19 03:56:52;;;;;;;7.60;6.72;;;;;;;15.64;100.00;101740.91;4867836;29;20037;-80
2022/05/19 03:59:17;;;;;;;8.35;6.82;;;;;;;15.66;100.00;101740.78;4851825;29;20049;-77
2022/05/19 04:01:43;;;;;;;8.15;6.35;;;;;;;15.73;100.00;101744.44;4862747;29;20045;-78
2022/05/19 04:04:09;;;;;;;7.93;6.47;;;;;;;15.76;100.00;101737.06;4838284;29;20037;-80
2022/05/19 04:06:36;;;;;;;9.07;6.43;;;;;;;15.79;100.00;101740.38;4853982;29;20790;-78
2022/05/19 04:09:03;;;;;;;8.57;6.82;;;;;;;15.85;100.00;101743.22;4861878;29;20033;-79
2022/05/19 04:11:29;;;;;;;12.90;7.03;;;;;;;15.93;100.00;101739.78;4848057;29;20045;-82
2022/05/19 04:13:55;;;;;;;7.82;6.32;;;;;;;15.93;100.00;101734.50;4848913;29;20189;-79
2022/05/19 04:16:21;;;;;;;7.88;6.30;;;;;;;15.96;100.00;101742.94;4852002;29;20271;-80
2022/05/19 04:18:47;;;;;;;8.05;6.80;;;;;;;16.00;100.00;101729.41;4853973;29;20528;-79
2022/05/19 04:21:13;;;;;;;8.90;6.50;;;;;;;15.93;100.00;101727.38;4862862;29;20041;-80
2022/05/19 04:23:38;;;;;;;9.13;6.97;;;;;;;16.06;100.00;101736.72;4835586;29;20084;-78
2022/05/19 04:26:04;;;;;;;10.18;6.68;;;;;;;16.13;100.00;101735.91;4857143;29;20128;-79
2022/05/19 04:28:30;;;;;;;9.07;6.63;;;;;;;16.08;100.00;101737.38;4838481;29;20037;-78
2022/05/19 04:30:56;;;;;;;10.02;6.75;;;;;;;16.08;100.00;101735.56;4856617;29;20052;-79
2022/05/19 04:33:21;;;;;;;8.57;7.25;;;;;;;16.20;100.00;101743.22;4863744;29;20934;-78
2022/05/19 04:35:47;;;;;;;10.23;6.25;;;;;;;16.24;100.00;101747.22;4849423;29;20033;-79
2022/05/19 04:38:15;;;;;;;9.02;6.43;;;;;;;16.28;100.00;101741.44;4860445;29;20045;-79
2022/05/19 04:40:49;;;;;;;8.52;6.47;;;;;;;16.38;100.00;101741.31;4841807;29;20041;-78
2022/05/19 04:43:21;;;;;;;9.65;6.80;;;;;;;16.52;100.00;101742.53;4843599;29;20049;-82
2022/05/19 04:45:48;;;;;;;8.05;6.03;;;;;;;16.62;100.00;101747.69;4847885;29;20037;-79
2022/05/19 04:48:14;;;;;;;7.20;6.25;;;;;;;16.70;100.00;101745.03;4852958;29;20557;-81
2022/05/19 04:50:39;;;;;;;8.52;6.60;;;;;;;16.82;100.00;101756.16;4867649;29;20045;-80
2022/05/19 04:53:05;;;;;;;9.80;6.43;;;;;;;16.93;100.00;101748.75;4858276;29;20524;-79
2022/05/19 04:55:31;;;;;;;8.25;6.57;;;;;;;17.01;100.00;101753.25;4864754;29;20692;-79
2022/05/19 04:57:56;;;;;;;13.27;5.93;;;;;;;17.18;100.00;101751.44;4857825;29;20033;-79
2022/05/19 05:00:22;;;;;;;8.25;6.22;;;;;;;17.32;100.00;101758.69;4855487;29;20852;-78
2022/05/19 05:02:48;;;;;;;8.05;6.13;;;;;;;17.41;100.00;101756.88;4875014;29;20042;-79
2022/05/19 05:05:13;;;;;;;11.45;6.60;;;;;;;17.51;100.00;101757.53;4840909;29;20116;-79
2022/05/19 05:07:40;;;;;;;9.88;5.97;;;;;;;17.64;100.00;101764.97;4847226;29;20045;-78
2022/05/19 05:10:06;;;;;;;10.57;6.32;;;;;;;17.70;100.00;101758.16;4867974;29;20566;-80
2022/05/19 05:12:31;;;;;;;10.13;5.82;;;;;;;17.89;100.00;101760.50;4853270;29;20113;-78
2022/05/19 05:14:57;;;;;;;7.28;5.70;;;;;;;18.03;100.00;101766.91;4865175;29;20033;-77
2022/05/19 05:17:23;;;;;;;7.82;5.75;;;;;;;18.13;100.00;101765.88;4859141;29;20044;-76
2022/05/19 05:19:48;;;;;;;9.77;5.78;;;;;;;18.24;100.00;101765.50;4877388;29;20113;-78
2022/05/19 05:22:15;;;;;;;7.53;6.05;;;;;;;18.35;100.00;101753.69;4858823;29;20033;-78
2022/05/19 05:24:40;;;;;;;6.28;5.43;;;;;;;18.43;100.00;101765.09;4856788;29;20042;-77
2022/05/19 05:27:07;;;;;;;10.35;6.07;;;;;;;18.55;100.00;101762.88;4843999;29;20109;-80
2022/05/19 05:29:34;;;;;;;11.80;6.32;;;;;;;18.59;100.00;101758.88;4856251;29;20061;-78
2022/05/19 05:32:01;;;;;;;8.07;6.00;;;;;;;18.69;100.00;101771.94;4849862;29;20033;-81
2022/05/19 05:34:27;;;;;;;8.18;5.68;;;;;;;18.74;100.00;101768.75;4841064;29;20034;-77
2022/05/19 05:36:52;;;;;;;8.43;6.20;;;;;;;18.76;100.00;101766.72;4857810;29;20045;-78
2022/05/19 05:39:18;;;;;;;9.38;5.82;;;;;;;18.73;100.00;101767.94;4856322;29;20505;-78
2022/05/19 05:41:44;;;;;;;7.50;5.43;;;;;;;18.71;100.00;101766.47;4875898;29;20509;-79
2022/05/19 05:44:09;;;;;;;11.13;6.07;;;;;;;18.71;100.00;101769.13;4857038;29;20045;-79
2022/05/19 05:46:36;;;;;;;12.05;5.57;;;;;;;18.67;100.00;101766.78;4852500;29;20073;-78
2022/05/19 05:49:04;;;;;;;11.18;5.85;;;;;;;18.78;100.00;101767.38;4841934;29;20152;-78
2022/05/19 05:51:33;;;;;;;8.02;5.90;;;;;;;18.80;100.00;101776.88;4852424;29;20758;-79
2022/05/19 05:53:58;;;;;;;6.70;5.80;;;;;;;18.85;100.00;101768.38;4857599;29;20037;-79
2022/05/19 05:56:24;;;;;;;7.85;5.72;;;;;;;18.92;100.00;101771.16;4857178;29;20493;-77
2022/05/19 05:58:50;;;;;;;8.98;5.85;;;;;;;19.05;100.00;101768.75;4866913;29;20034;-77
2022/05/19 06:01:20;;;;;;;7.85;5.93;;;;;;;19.14;100.00;101775.66;4847718;29;20782;-77
2022/05/19 06:03:47;;;;;;;10.18;5.72;;;;;;;19.16;100.00;101780.81;4869100;29;20072;-78
2022/05/19 06:06:14;;;;;;;10.13;5.60;;;;;;;19.29;100.00;101772.19;4847285;29;20037;-78
2022/05/19 06:08:41;;;;;;;8.57;5.70;;;;;;;19.38;100.00;101781.78;4855962;29;20041;-79
2022/05/19 06:11:08;;;;;;;8.25;5.72;;;;;;;19.50;100.00;101777.69;4860269;29;20043;-78
2022/05/19 06:13:34;;;;;;;8.85;5.40;;;;;;;19.69;100.00;101780.84;4851415;29;20053;-79
2022/05/19 06:16:00;;;;;;;8.90;5.63;;;;;;;19.83;100.00;101780.88;4845181;29;20468;-79
2022/05/19 06:18:26;;;;;;;9.73;5.25;;;;;;;20.06;100.00;101779.13;4842145;29;20125;-78
2022/05/19 06:20:53;;;;;;;8.25;5.45;;;;;;;20.14;100.00;101779.88;4857854;29;20598;-80
2022/05/19 06:23:19;;;;;;;9.45;5.57;;;;;;;20.26;99.51;101774.91;4854167;29;20493;-78
2022/05/19 06:25:46;;;;;;;6.60;5.30;;;;;;;20.34;99.93;101780.13;4870528;29;20053;-80
2022/05/19 06:28:11;;;;;;;9.73;5.35;;;;;;;20.38;99.57;101776.09;4854402;29;20043;-80
2022/05/19 06:30:38;;;;;;;7.60;4.85;;;;;;;20.45;98.21;101770.00;4852403;29;20030;-80
2022/05/19 06:33:07;;;;;;;9.07;5.25;;;;;;;20.57;96.62;101785.31;4847108;29;20041;-78
2022/05/19 06:35:34;;;;;;;23.67;4.60;;;;;;;20.64;97.10;101780.09;4864561;29;20492;-78
2022/05/19 06:38:00;;;;;;;10.55;4.80;;;;;;;20.71;96.43;101772.19;4844590;29;20041;-79
2022/05/19 06:40:28;;;;;;;8.80;4.45;;;;;;;20.80;97.34;101768.38;4856126;29;20033;-77
2022/05/19 06:42:54;;;;;;;6.50;4.97;;;;;;;20.94;96.33;101766.66;4841191;29;20572;-77
2022/05/19 06:45:25;;;;;;;9.25;4.75;;;;;;;21.09;96.81;101763.94;4857328;29;20037;-79
2022/05/19 06:47:52;;;;;;;6.25;4.43;;;;;;;21.15;96.22;101763.16;4855033;29;20139;-78
2022/05/19 06:50:18;;;;;;;6.93;4.32;;;;;;;21.30;94.29;101760.41;4855608;29;20077;-77
2022/05/19 06:52:53;;;;;;;9.63;4.45;;;;;;;21.38;91.75;101749.63;4865942;29;20045;-78
2022/05/19 06:55:22;;;;;;;5.05;4.53;;;;;;;21.64;93.77;101759.66;4845358;29;20598;-80
2022/05/19 06:57:48;;;;;;;5.35;4.30;;;;;;;21.82;92.76;101761.84;4839602;29;20413;-78
2022/05/19 07:00:18;;;;;;;9.75;4.25;;;;;;;22.04;90.78;101749.22;4835820;29;20894;-80
2022/05/19 07:02:46;;;;;;;8.90;4.10;;;;;;;22.25;87.92;101755.50;4849248;29;20037;-78
2022/05/19 07:05:13;;;;;;;5.72;3.97;;;;;;;22.44;88.46;101754.75;4854506;29;20040;-81
2022/05/19 07:07:39;;;;;;;8.20;3.38;;;;;;;22.55;84.59;101764.06;4844806;29;20042;-77
2022/05/19 07:10:06;;;;;;;9.02;3.50;;;;;;;22.70;83.14;101754.00;4852164;29;20046;-79
2022/05/19 07:12:33;;;;;;;4.85;3.45;;;;;;;22.86;82.86;101752.78;4853665;29;20034;-79
2022/05/19 07:15:00;;;;;;;6.70;3.80;;;;;;;22.91;82.33;101760.22;4839438;29;20035;-79
2022/05/19 07:17:26;;;;;;;6.95;3.50;;;;;;;22.93;81.28;101745.59;4838052;29;20049;-77
2022/05/19 07:22:35;;;;;;;3.92;3.10;;;;;;;23.29;81.46;101755.09;4858104;29;20037;-79
2022/05/19 07:25:06;;;;;;;5.95;3.33;;;;;;;23.55;81.12;101761.47;4883446;29;20045;-78
2022/05/19 07:27:32;;;;;;;5.70;3.13;;;;;;;23.71;79.76;101765.56;4874700;29;20037;-80
2022/05/19 07:29:59;;;;;;;9.45;3.20;;;;;;;23.92;80.52;101763.69;4840609;29;20029;-79
2022/05/19 07:32:25;;;;;;;5.25;3.00;;;;;;;24.01;76.28;101757.88;4859997;29;20045;-78
2022/05/19 07:34:52;;;;;;;7.35;3.58;;;;;;;24.10;75.27;101759.28;4866432;29;20042;-76
2022/05/19 07:37:17;;;;;;;6.68;3.33;;;;;;;24.18;74.12;101757.41;4857210;29;20145;-80
2022/05/19 07:39:44;;;;;;;4.10;2.95;;;;;;;24.19;76.52;101751.84;4854225;29;20053;-78
2022/05/19 07:42:09;;;;;;;5.65;2.55;;;;;;;24.29;75.07;101754.88;4855117;29;20388;-78
2022/05/19 07:44:35;;;;;;;6.00;3.08;;;;;;;24.30;75.08;101750.38;4843693;29;20493;-78
2022/05/19 07:47:01;;;;;;;4.47;3.10;;;;;;;24.31;74.61;101743.13;4855403;29;20092;-78
2022/05/19 07:49:27;;;;;;;4.28;3.30;;;;;;;24.48;72.83;101744.28;4876218;29;20126;-77
2022/05/19 07:51:53;;;;;;;4.15;2.65;;;;;;;24.59;73.38;101748.16;4859166;29;20425;-78
2022/05/19 07:54:26;;;;;;;6.80;2.90;;;;;;;24.77;72.82;101734.84;4849942;29;20602;-79
2022/05/19 07:56:52;;;;;;;3.38;2.40;;;;;;;25.05;72.23;101744.31;4850300;29;20064;-79
2022/05/19 07:59:19;;;;;;;4.53;2.55;;;;;;;25.33;71.38;101745.78;4854722;29;20029;-80
2022/05/19 08:01:46;;;;;;;4.90;2.50;;;;;;;25.42;66.46;101747.97;4859815;29;20112;-80
2022/05/19 08:04:13;;;;;;;6.53;2.35;;;;;;;25.60;66.96;101752.53;4860427;29;20065;-79
2022/05/19 08:06:39;;;;;;;5.43;2.20;;;;;;;25.71;65.88;101750.16;4878773;29;20503;-77
2022/05/19 08:11:50;;;;;;;3.97;2.70;;;;;;;25.99;63.89;101755.03;4853317;29;20034;-78
2022/05/19 08:17:00;;;;;;;4.53;2.40;;;;;;;26.13;63.41;101747.66;4860689;29;20398;-79
2022/05/19 08:19:26;;;;;;;4.82;2.60;;;;;;;26.25;61.76;101742.31;4853901;29;20046;-78
2022/05/19 08:21:51;;;;;;;3.45;1.95;;;;;;;26.30;60.82;101745.97;4847990;29;20488;-80
2022/05/19 08:24:17;;;;;;;4.20;2.03;;;;;;;26.31;59.14;101744.91;4864753;29;20559;-76
2022/05/19 08:26:43;;;;;;;5.28;2.10;;;;;;;26.52;61.05;101738.22;4853145;29;20181;-80
2022/05/19 08:29:08;;;;;;;3.75;2.03;;;;;;;26.47;57.27;101732.69;4849934;29;20048;-80
2022/05/19 08:31:35;;;;;;;5.35;2.05;;;;;;;26.61;58.12;101738.72;4850527;29;20505;-78
2022/05/19 08:34:03;;;;;;;4.68;2.03;;;;;;;26.82;60.15;101725.78;4868319;29;20033;-79
2022/05/19 08:36:29;;;;;;;3.25;1.75;;;;;;;26.91;59.80;101722.53;4868585;29;20150;-76
2022/05/19 08:38:56;;;;;;;4.80;2.03;;;;;;;27.14;55.14;101726.28;4848969;29;20040;-78
2022/05/19 08:41:27;;;;;;;4.22;2.10;;;;;;;27.31;55.27;101731.84;4866319;29;20122;-79
2022/05/19 08:44:03;;;;;;;4.80;2.10;;;;;;;27.45;57.51;101738.63;4856477;29;20034;-79
2022/05/19 08:46:38;;;;;;;5.13;2.10;;;;;;;27.59;57.74;101733.81;4858264;29;20400;-78
2022/05/19 08:49:17;;;;;;;6.97;2.10;;;;;;;27.45;52.97;101737.81;4855909;29;20574;-80
2022/05/19 08:51:53;;;;;;;5.93;2.15;;;;;;;27.46;51.39;101728.66;4853180;29;20042;-77
2022/05/19 08:54:23;;;;;;;2.13;1.67;;;;;;;27.65;52.24;101729.34;4859055;29;20049;-79
2022/05/19 08:57:04;;;;;;;4.28;1.88;;;;;;;27.81;52.31;101727.81;4858899;29;20124;-78
2022/05/19 08:59:48;;;;;;;3.17;1.80;;;;;;;27.63;52.06;101726.06;4858200;29;20113;-77
2022/05/19 09:02:23;;;;;;;6.10;2.00;;;;;;;27.63;51.98;101728.75;4853012;29;20125;-80
2022/05/19 09:05:14;;;;;;;4.50;1.70;;;;;;;27.57;51.23;101733.22;4832971;29;20029;-78
2022/05/19 09:08:05;;;;;;;3.42;2.33;;;;;;;27.54;51.84;101726.44;4863579;29;20064;-79
2022/05/19 09:10:56;;;;;;;5.40;1.65;;;;;;;27.60;52.92;101721.97;4865300;29;20042;-77
2022/05/19 09:13:51;;;;;;;7.38;1.88;;;;;;;27.76;51.62;101725.81;4836263;29;20053;-79
2022/05/19 09:16:21;;;;;;;3.60;1.70;;;;;;;27.92;51.66;101722.41;4854447;29;20045;-80
2022/05/19 09:19:09;;;;;;;4.47;1.80;;;;;;;28.02;48.52;101718.28;4841606;29;20034;-80
2022/05/19 09:21:37;;;;;;;4.38;1.80;;;;;;;28.17;50.95;101715.88;4866374;29;20040;-79
2022/05/19 09:24:04;;;;;;;3.15;1.67;;;;;;;28.11;49.31;101723.03;4851558;29;20037;-79
2022/05/19 09:26:52;;;;;;;3.78;1.77;;;;;;;28.02;51.15;101705.59;4853217;29;20473;-80
2022/05/19 09:29:27;;;;;;;2.70;1.48;;;;;;;27.95;50.52;101697.69;4849771;29;20072;-79
2022/05/19 09:32:01;;;;;;;3.47;1.63;;;;;;;27.66;51.00;101698.66;4825415;29;20034;-77
2022/05/19 09:34:29;;;;;;;7.40;1.85;;;;;;;27.72;50.96;101705.78;4868827;29;20045;-80
2022/05/19 09:37:04;;;;;;;4.75;1.73;;;;;;;27.85;50.75;101707.41;4868389;29;20128;-78
2022/05/19 09:39:33;;;;;;;3.33;1.95;;;;;;;27.91;50.71;101698.38;4872957;29;20029;-78
2022/05/19 09:42:05;;;;;;;1.80;1.45;;;;;;;28.12;50.88;101697.72;4855600;29;20041;-78
2022/05/19 09:44:34;;;;;;;3.67;1.90;;;;;;;28.37;53.16;101698.41;4876869;29;20041;-79
2022/05/19 09:47:14;;;;;;;2.53;1.60;;;;;;;28.51;51.40;101695.16;4863303;29;20101;-76
2022/05/19 09:49:44;;;;;;;2.95;1.70;;;;;;;28.59;46.43;101698.56;4853549;29;20061;-80
2022/05/19 09:52:17;;;;;;;3.53;1.70;;;;;;;28.62;47.08;101698.88;4853868;29;20029;-79
2022/05/19 09:54:52;;;;;;;4.65;1.50;;;;;;;28.68;48.77;101699.78;4852093;29;20037;-80
2022/05/19 09:57:25;;;;;;;3.72;1.88;;;;;;;28.70;48.41;101681.47;4868460;29;20048;-79
2022/05/19 09:59:53;;;;;;;4.00;2.25;;;;;;;28.81;46.84;101688.66;4875036;29;20069;-79
2022/05/19 10:02:49;;;;;;;3.63;1.70;;;;;;;28.97;48.29;101689.75;4836189;29;20047;-78
2022/05/19 10:05:37;;;;;;;1.75;1.48;;;;;;;29.01;46.38;101676.53;4819908;29;20057;-76
2022/05/19 10:08:15;;;;;;;2.65;1.60;;;;;;;29.12;47.99;101679.16;4839377;29;20041;-76
2022/05/19 10:11:00;;;;;;;1.92;1.70;;;;;;;29.02;46.04;101687.09;4833738;29;20340;-76
2022/05/19 10:13:57;;;;;;;3.83;1.88;;;;;;;28.86;45.60;101679.84;4849739;29;20065;-76
2022/05/19 10:16:49;;;;;;;2.63;1.60;;;;;;;28.94;46.42;101676.72;4848421;29;20095;-75
2022/05/19 10:19:53;;;;;;;2.22;1.73;;;;;;;29.07;44.69;101681.78;4844910;29;20233;-76
2022/05/19 10:22:55;;;;;;;3.17;1.95;;;;;;;28.95;44.20;101675.63;4848820;29;20488;-76
2022/05/19 10:25:27;;;;;;;2.20;1.98;;;;;;;28.73;45.71;101673.69;4832550;29;20045;-76
2022/05/19 10:31:22;;;;;;;2.47;1.48;;;;;;;28.54;54.26;101658.81;4849765;29;20089;-78
2022/05/19 10:34:21;;;;;;;3.28;1.80;;;;;;;28.31;52.47;101667.81;4851674;29;20038;-77
2022/05/19 10:37:18;;;;;;;2.92;1.63;;;;;;;28.22;52.60;101659.34;4854886;29;20032;-78
2022/05/19 10:40:07;;;;;;;3.53;1.98;;;;;;;28.19;50.73;101654.41;4860503;29;20098;-77
2022/05/19 10:42:49;;;;;;;2.53;1.83;;;;;;;28.02;52.52;101651.69;4857238;29;20046;-77
2022/05/19 10:45:35;;;;;;;;;;;;;;;28.24;56.40;101651.00;4846512;29;20049;-77
2022/05/19 10:48:32;;;;;;;2.97;1.70;;;;;;;28.60;52.15;101646.22;4865947;29;20027;-77
2022/05/19 10:51:29;;;;;;;5.03;1.67;;;;;;;28.86;50.30;101650.97;4869313;29;20515;-78
2022/05/19 10:54:26;;;;;;;4.18;1.67;;;;;;;28.92;50.93;101643.75;4839116;29;20513;-75
2022/05/19 10:57:11;;;;;;;3.88;1.70;;;;;;;28.91;51.01;101647.50;4858995;29;20047;-76
2022/05/19 11:00:03;;;;;;;3.63;1.65;;;;;;;28.97;47.19;101638.44;4849752;29;20174;-79
2022/05/19 11:03:09;;;;;;;3.08;1.65;;;;;;;29.09;50.16;101633.72;4862390;29;20114;-78
2022/05/19 11:05:51;;;;;;;4.30;1.50;;;;;;;29.29;47.79;101625.13;4863987;29;20058;-79
2022/05/19 11:08:40;;;;;;;2.60;1.80;;;;;;;29.60;44.57;101620.06;4852596;29;20057;-78
2022/05/19 11:11:42;;;;;;;5.03;1.73;;;;;;;30.00;45.10;101623.47;4879057;29;20146;-78
2022/05/19 11:14:33;;;;;;;2.63;1.52;;;;;;;30.38;42.75;101622.47;4869468;29;20041;-78
2022/05/19 11:17:12;;;;;;;7.93;1.65;;;;;;;30.34;42.95;101623.28;4857390;29;20120;-78
2022/05/19 11:19:46;;;;;;;2.72;1.90;;;;;;;30.41;45.88;101605.75;4868091;29;20046;-77
2022/05/19 11:22:16;;;;;;;4.78;1.80;;;;;;;30.41;43.63;101597.63;4833421;29;20037;-77
2022/05/19 11:28:18;;;;;;;1.75;1.65;;;;;;;30.56;41.70;101596.13;4854198;29;20041;-77
2022/05/19 11:30:57;;;;;;;4.10;1.60;;;;;;;30.61;42.03;101596.97;4850884;29;20417;-77
2022/05/19 11:33:27;;;;;;;3.58;1.60;;;;;;;30.70;41.65;101591.84;4868320;29;20515;-79
2022/05/19 11:36:00;;;;;;;5.45;1.77;;;;;;;30.86;44.96;101590.88;4862558;29;20030;-77
2022/05/19 11:38:32;;;;;;;4.32;1.63;;;;;;;30.56;40.40;101586.09;4841061;29;20042;-79
2022/05/19 11:41:04;;;;;;;2.10;1.90;;;;;;;30.77;43.69;101586.22;4860358;29;20097;-78
2022/05/19 11:43:52;;;;;;;5.53;2.00;;;;;;;30.97;40.58;101589.06;4858306;29;20124;-77
2022/05/19 11:46:25;;;;;;;3.33;1.70;;;;;;;31.08;41.26;101573.69;4861455;29;20077;-79
2022/05/19 11:55:12;;;;;;;4.40;1.52;;;;;;;31.08;38.49;101567.44;4857467;29;20049;-78
2022/05/19 11:57:55;;;;;;;1.98;1.60;;;;;;;31.10;40.29;101555.28;4863854;29;20132;-78
2022/05/19 12:00:27;;;;;;;3.03;1.70;;;;;;;31.15;38.50;101557.19;4857620;29;20046;-79